Cerfontaine Nouv Airport


Codes: EBCF/
Name: Cerfontaine Nouv Airport
City: Cerfontaine
Country: Belgium
Elevation: 961 ft.

Photos at Cerfontaine Nouv Airport


   Photos courtesy of SpottingLog. You can add your own sightings and photos by signing up for a free trial today.



No photos found.

Weather at Cerfontaine Nouv Airport


Time (UTC)DescriptionTempratureWindCloud coverageVisibilityPressureHumidity
17-Jun-2024 06:00Light Rain13°C9 mph, SW100%10000m1010hPa97%
17-Jun-2024 09:00Light Rain13°C9 mph, SW100%10000m1012hPa93%
17-Jun-2024 12:00Overcast Clouds16°C9 mph, SW100%10000m1013hPa80%
17-Jun-2024 15:00Light Rain19°C9 mph, SW100%10000m1013hPa69%
17-Jun-2024 18:00Light Rain18°C4 mph, SW100%10000m1013hPa81%
17-Jun-2024 21:00Overcast Clouds14°C4 mph, S90%10000m1015hPa93%
18-Jun-2024 00:00Overcast Clouds13°C4 mph, SE92%10000m1015hPa94%
18-Jun-2024 03:00Overcast Clouds12°C4 mph, SE100%10000m1014hPa97%
18-Jun-2024 06:00Overcast Clouds15°C4 mph, SE100%10000m1014hPa93%
18-Jun-2024 09:00Overcast Clouds20°C2 mph, SE99%10000m1014hPa75%
18-Jun-2024 12:00Moderate Rain16°C2 mph, N100%10000m1014hPa97%
18-Jun-2024 15:00Light Rain17°C0 mph, N100%10000m1014hPa93%
18-Jun-2024 18:00Light Rain17°C7 mph, NW99%10000m1014hPa92%
18-Jun-2024 21:00Light Rain13°C13 mph, N100%7128m1015hPa98%
19-Jun-2024 00:00Overcast Clouds12°C7 mph, N100%10000m1016hPa98%
19-Jun-2024 03:00Overcast Clouds12°C9 mph, N100%0m1016hPa99%
19-Jun-2024 06:00Overcast Clouds13°C9 mph, NE100%10000m1018hPa96%
19-Jun-2024 09:00Overcast Clouds16°C9 mph, NE91%10000m1019hPa77%
19-Jun-2024 12:00Overcast Clouds18°C11 mph, NE91%10000m1020hPa73%
19-Jun-2024 15:00Overcast Clouds19°C9 mph, NE86%10000m1020hPa69%
19-Jun-2024 18:00Broken Clouds18°C9 mph, NE84%10000m1020hPa77%
19-Jun-2024 21:00Few Clouds14°C9 mph, NE20%10000m1021hPa87%
20-Jun-2024 00:00Few Clouds12°C9 mph, NE19%10000m1021hPa93%
20-Jun-2024 03:00Broken Clouds11°C7 mph, NE63%10000m1020hPa89%
20-Jun-2024 06:00Broken Clouds15°C7 mph, E69%10000m1019hPa80%
20-Jun-2024 09:00Light Rain18°C7 mph, E98%10000m1018hPa84%
20-Jun-2024 12:00Light Rain21°C16 mph, E92%10000m1015hPa77%
20-Jun-2024 15:00Light Rain23°C11 mph, S79%10000m1013hPa84%
20-Jun-2024 18:00Light Rain20°C11 mph, S89%10000m1012hPa93%
20-Jun-2024 21:00Light Rain18°C16 mph, S100%10000m1012hPa96%
21-Jun-2024 00:00Light Rain16°C16 mph, S100%10000m1011hPa97%
21-Jun-2024 03:00Light Rain16°C11 mph, S100%10000m1010hPa98%
21-Jun-2024 06:00Light Rain16°C11 mph, SW100%10000m1010hPa97%
21-Jun-2024 09:00Light Rain15°C11 mph, SW100%10000m1011hPa98%
21-Jun-2024 12:00Light Rain15°C9 mph, SW100%10000m1012hPa93%
21-Jun-2024 15:00Light Rain17°C9 mph, SW100%10000m1012hPa86%
21-Jun-2024 18:00Light Rain17°C9 mph, SW89%10000m1013hPa87%
21-Jun-2024 21:00Light Rain14°C7 mph, SW33%10000m1013hPa98%
22-Jun-2024 00:00Scattered Clouds13°C7 mph, SW33%10000m1013hPa98%
22-Jun-2024 03:00Overcast Clouds12°C7 mph, S86%10000m1013hPa98%